sensor_id;sensor_type;location;lat;lon;timestamp;P1;durP1;ratioP1;P2;durP2;ratioP2
76552;SDS011;65395;53.168;18.156;2022-12-07T00:00:54;16.10;;;7.80;;
76552;SDS011;65395;53.168;18.156;2022-12-07T00:03:30;15.50;;;7.90;;
76552;SDS011;65395;53.168;18.156;2022-12-07T00:05:58;18.70;;;8.50;;
76552;SDS011;65395;53.168;18.156;2022-12-07T00:08:25;15.80;;;7.40;;
76552;SDS011;65395;53.168;18.156;2022-12-07T00:10:52;14.70;;;7.50;;
76552;SDS011;65395;53.168;18.156;2022-12-07T00:13:19;13.50;;;7.30;;
76552;SDS011;65395;53.168;18.156;2022-12-07T00:15:46;15.60;;;7.30;;
76552;SDS011;65395;53.168;18.156;2022-12-07T00:18:12;15.40;;;7.30;;
76552;SDS011;65395;53.168;18.156;2022-12-07T00:20:39;14.60;;;7.40;;
76552;SDS011;65395;53.168;18.156;2022-12-07T00:23:06;18.90;;;8.00;;
76552;SDS011;65395;53.168;18.156;2022-12-07T00:25:32;16.10;;;8.40;;
76552;SDS011;65395;53.168;18.156;2022-12-07T00:27:59;15.30;;;7.60;;
76552;SDS011;65395;53.168;18.156;2022-12-07T00:30:26;13.80;;;6.90;;
76552;SDS011;65395;53.168;18.156;2022-12-07T00:32:52;14.80;;;7.10;;
76552;SDS011;65395;53.168;18.156;2022-12-07T00:35:19;15.50;;;7.40;;
76552;SDS011;65395;53.168;18.156;2022-12-07T00:37:45;15.20;;;7.50;;
76552;SDS011;65395;53.168;18.156;2022-12-07T00:40:12;16.00;;;7.50;;
76552;SDS011;65395;53.168;18.156;2022-12-07T00:42:39;16.10;;;6.90;;
76552;SDS011;65395;53.168;18.156;2022-12-07T00:45:06;15.90;;;6.70;;
76552;SDS011;65395;53.168;18.156;2022-12-07T00:47:33;13.90;;;7.20;;
76552;SDS011;65395;53.168;18.156;2022-12-07T00:49:59;16.90;;;7.10;;
76552;SDS011;65395;53.168;18.156;2022-12-07T00:52:26;14.00;;;6.70;;
76552;SDS011;65395;53.168;18.156;2022-12-07T00:54:53;13.80;;;7.10;;
76552;SDS011;65395;53.168;18.156;2022-12-07T00:57:19;15.90;;;7.90;;
76552;SDS011;65395;53.168;18.156;2022-12-07T00:59:46;15.60;;;7.20;;
76552;SDS011;65395;53.168;18.156;2022-12-07T01:02:14;16.50;;;7.20;;
76552;SDS011;65395;53.168;18.156;2022-12-07T01:04:41;14.90;;;6.30;;
76552;SDS011;65395;53.168;18.156;2022-12-07T01:07:07;16.10;;;6.30;;
76552;SDS011;65395;53.168;18.156;2022-12-07T01:09:34;11.60;;;5.60;;
76552;SDS011;65395;53.168;18.156;2022-12-07T01:12:01;14.40;;;6.50;;
76552;SDS011;65395;53.168;18.156;2022-12-07T01:14:29;13.40;;;6.20;;
76552;SDS011;65395;53.168;18.156;2022-12-07T01:16:55;11.90;;;6.10;;
76552;SDS011;65395;53.168;18.156;2022-12-07T01:19:22;9.60;;;5.00;;
76552;SDS011;65395;53.168;18.156;2022-12-07T01:21:48;9.80;;;5.00;;
76552;SDS011;65395;53.168;18.156;2022-12-07T01:24:15;11.10;;;5.60;;
76552;SDS011;65395;53.168;18.156;2022-12-07T01:26:42;10.20;;;5.10;;
76552;SDS011;65395;53.168;18.156;2022-12-07T01:29:08;10.20;;;5.50;;
76552;SDS011;65395;53.168;18.156;2022-12-07T01:31:35;11.20;;;5.20;;
76552;SDS011;65395;53.168;18.156;2022-12-07T01:34:02;10.10;;;4.80;;
76552;SDS011;65395;53.168;18.156;2022-12-07T01:36:30;9.40;;;4.90;;
76552;SDS011;65395;53.168;18.156;2022-12-07T01:39:00;8.90;;;5.20;;
76552;SDS011;65395;53.168;18.156;2022-12-07T01:41:31;7.70;;;4.60;;
76552;SDS011;65395;53.168;18.156;2022-12-07T01:46:39;9.10;;;4.60;;
76552;SDS011;65395;53.168;18.156;2022-12-07T01:49:08;6.80;;;4.10;;
76552;SDS011;65395;53.168;18.156;2022-12-07T01:51:38;8.70;;;4.80;;
76552;SDS011;65395;53.168;18.156;2022-12-07T01:54:08;6.80;;;3.80;;
76552;SDS011;65395;53.168;18.156;2022-12-07T01:56:37;8.50;;;4.20;;
76552;SDS011;65395;53.168;18.156;2022-12-07T01:59:06;6.30;;;3.70;;
76552;SDS011;65395;53.168;18.156;2022-12-07T02:01:34;6.50;;;3.90;;
76552;SDS011;65395;53.168;18.156;2022-12-07T02:04:01;6.90;;;3.80;;
76552;SDS011;65395;53.168;18.156;2022-12-07T02:06:28;6.70;;;3.40;;
76552;SDS011;65395;53.168;18.156;2022-12-07T02:08:56;6.60;;;3.60;;
76552;SDS011;65395;53.168;18.156;2022-12-07T02:11:23;5.90;;;3.30;;
76552;SDS011;65395;53.168;18.156;2022-12-07T02:13:50;6.10;;;3.20;;
76552;SDS011;65395;53.168;18.156;2022-12-07T02:16:25;6.60;;;3.60;;
76552;SDS011;65395;53.168;18.156;2022-12-07T02:21:53;5.60;;;3.00;;
76552;SDS011;65395;53.168;18.156;2022-12-07T02:24:48;5.50;;;2.90;;
76552;SDS011;65395;53.168;18.156;2022-12-07T02:27:34;5.90;;;3.50;;
76552;SDS011;65395;53.168;18.156;2022-12-07T02:30:12;5.90;;;3.50;;
76552;SDS011;65395;53.168;18.156;2022-12-07T02:32:48;6.70;;;3.70;;
76552;SDS011;65395;53.168;18.156;2022-12-07T02:35:28;7.00;;;3.70;;
76552;SDS011;65395;53.168;18.156;2022-12-07T02:38:11;6.20;;;3.70;;
76552;SDS011;65395;53.168;18.156;2022-12-07T02:40:50;6.30;;;3.80;;
76552;SDS011;65395;53.168;18.156;2022-12-07T02:43:30;6.00;;;3.90;;
76552;SDS011;65395;53.168;18.156;2022-12-07T02:46:10;7.50;;;4.20;;
76552;SDS011;65395;53.168;18.156;2022-12-07T02:48:40;8.60;;;4.20;;
76552;SDS011;65395;53.168;18.156;2022-12-07T02:51:09;8.80;;;4.00;;
76552;SDS011;65395;53.168;18.156;2022-12-07T02:53:40;7.40;;;4.30;;
76552;SDS011;65395;53.168;18.156;2022-12-07T02:59:09;6.20;;;3.90;;
76552;SDS011;65395;53.168;18.156;2022-12-07T03:01:57;7.50;;;4.00;;
76552;SDS011;65395;53.168;18.156;2022-12-07T03:07:39;8.40;;;4.60;;
76552;SDS011;65395;53.168;18.156;2022-12-07T03:10:22;8.60;;;4.90;;
76552;SDS011;65395;53.168;18.156;2022-12-07T03:18:38;9.00;;;4.20;;
76552;SDS011;65395;53.168;18.156;2022-12-07T03:21:11;6.60;;;4.30;;
76552;SDS011;65395;53.168;18.156;2022-12-07T03:23:44;6.60;;;4.40;;
76552;SDS011;65395;53.168;18.156;2022-12-07T03:26:15;7.50;;;4.10;;
76552;SDS011;65395;53.168;18.156;2022-12-07T03:28:45;7.30;;;4.40;;
76552;SDS011;65395;53.168;18.156;2022-12-07T03:31:18;7.50;;;4.10;;
76552;SDS011;65395;53.168;18.156;2022-12-07T03:33:57;7.00;;;3.70;;
76552;SDS011;65395;53.168;18.156;2022-12-07T03:36:35;7.30;;;4.30;;
76552;SDS011;65395;53.168;18.156;2022-12-07T03:39:19;6.70;;;3.80;;
76552;SDS011;65395;53.168;18.156;2022-12-07T03:42:00;8.40;;;4.20;;
76552;SDS011;65395;53.168;18.156;2022-12-07T03:44:30;7.90;;;4.10;;
76552;SDS011;65395;53.168;18.156;2022-12-07T03:47:01;6.10;;;4.20;;
76552;SDS011;65395;53.168;18.156;2022-12-07T03:52:19;6.80;;;4.10;;
76552;SDS011;65395;53.168;18.156;2022-12-07T03:54:56;5.70;;;3.40;;
76552;SDS011;65395;53.168;18.156;2022-12-07T03:57:28;7.00;;;3.50;;
76552;SDS011;65395;53.168;18.156;2022-12-07T03:59:56;4.90;;;3.10;;
76552;SDS011;65395;53.168;18.156;2022-12-07T04:02:24;6.20;;;3.60;;
76552;SDS011;65395;53.168;18.156;2022-12-07T04:04:53;5.60;;;3.30;;
76552;SDS011;65395;53.168;18.156;2022-12-07T04:07:21;4.10;;;3.10;;
76552;SDS011;65395;53.168;18.156;2022-12-07T04:09:47;5.40;;;3.50;;
76552;SDS011;65395;53.168;18.156;2022-12-07T04:12:14;4.50;;;3.10;;
76552;SDS011;65395;53.168;18.156;2022-12-07T04:14:41;5.00;;;3.10;;
76552;SDS011;65395;53.168;18.156;2022-12-07T04:17:08;6.10;;;3.30;;
76552;SDS011;65395;53.168;18.156;2022-12-07T04:19:35;4.40;;;3.00;;
76552;SDS011;65395;53.168;18.156;2022-12-07T04:22:02;4.90;;;3.30;;
76552;SDS011;65395;53.168;18.156;2022-12-07T04:24:31;5.00;;;3.10;;
76552;SDS011;65395;53.168;18.156;2022-12-07T04:26:58;4.90;;;3.30;;
76552;SDS011;65395;53.168;18.156;2022-12-07T04:29:25;6.80;;;3.40;;
76552;SDS011;65395;53.168;18.156;2022-12-07T04:31:52;5.70;;;3.80;;
76552;SDS011;65395;53.168;18.156;2022-12-07T04:34:19;5.10;;;3.50;;
76552;SDS011;65395;53.168;18.156;2022-12-07T04:36:46;5.80;;;3.50;;
76552;SDS011;65395;53.168;18.156;2022-12-07T04:39:18;5.20;;;3.60;;
76552;SDS011;65395;53.168;18.156;2022-12-07T04:41:54;5.40;;;3.00;;
76552;SDS011;65395;53.168;18.156;2022-12-07T04:44:23;6.70;;;3.30;;
76552;SDS011;65395;53.168;18.156;2022-12-07T04:46:51;6.50;;;3.40;;
76552;SDS011;65395;53.168;18.156;2022-12-07T04:49:19;7.20;;;3.80;;
76552;SDS011;65395;53.168;18.156;2022-12-07T04:51:46;7.40;;;4.30;;
76552;SDS011;65395;53.168;18.156;2022-12-07T04:54:14;7.10;;;4.00;;
76552;SDS011;65395;53.168;18.156;2022-12-07T04:56:42;9.00;;;4.50;;
76552;SDS011;65395;53.168;18.156;2022-12-07T04:59:09;5.80;;;3.90;;
76552;SDS011;65395;53.168;18.156;2022-12-07T05:01:37;6.90;;;4.40;;
76552;SDS011;65395;53.168;18.156;2022-12-07T05:04:04;7.20;;;4.50;;
76552;SDS011;65395;53.168;18.156;2022-12-07T05:06:31;8.00;;;5.00;;
76552;SDS011;65395;53.168;18.156;2022-12-07T05:08:58;11.20;;;4.90;;
76552;SDS011;65395;53.168;18.156;2022-12-07T05:11:24;8.60;;;4.70;;
76552;SDS011;65395;53.168;18.156;2022-12-07T05:14:02;6.90;;;4.40;;
76552;SDS011;65395;53.168;18.156;2022-12-07T05:16:30;8.10;;;5.00;;
76552;SDS011;65395;53.168;18.156;2022-12-07T05:18:58;7.70;;;4.60;;
76552;SDS011;65395;53.168;18.156;2022-12-07T05:21:25;8.20;;;5.10;;
76552;SDS011;65395;53.168;18.156;2022-12-07T05:23:52;7.60;;;5.20;;
76552;SDS011;65395;53.168;18.156;2022-12-07T05:26:19;8.10;;;5.00;;
76552;SDS011;65395;53.168;18.156;2022-12-07T05:28:49;16.70;;;5.60;;
76552;SDS011;65395;53.168;18.156;2022-12-07T05:31:16;8.80;;;5.10;;
76552;SDS011;65395;53.168;18.156;2022-12-07T05:33:43;8.10;;;4.70;;
76552;SDS011;65395;53.168;18.156;2022-12-07T05:36:10;8.90;;;5.60;;
76552;SDS011;65395;53.168;18.156;2022-12-07T05:38:36;7.90;;;4.70;;
76552;SDS011;65395;53.168;18.156;2022-12-07T05:41:04;8.00;;;4.80;;
76552;SDS011;65395;53.168;18.156;2022-12-07T05:43:33;7.70;;;4.70;;
76552;SDS011;65395;53.168;18.156;2022-12-07T05:45:59;8.50;;;5.10;;
76552;SDS011;65395;53.168;18.156;2022-12-07T05:48:26;8.50;;;4.40;;
76552;SDS011;65395;53.168;18.156;2022-12-07T05:50:53;7.30;;;4.70;;
76552;SDS011;65395;53.168;18.156;2022-12-07T05:53:20;7.60;;;4.20;;
76552;SDS011;65395;53.168;18.156;2022-12-07T05:55:46;8.60;;;5.00;;
76552;SDS011;65395;53.168;18.156;2022-12-07T05:58:13;6.50;;;3.90;;
76552;SDS011;65395;53.168;18.156;2022-12-07T06:00:50;7.30;;;4.50;;
76552;SDS011;65395;53.168;18.156;2022-12-07T06:03:17;7.10;;;4.20;;
76552;SDS011;65395;53.168;18.156;2022-12-07T06:05:43;8.90;;;4.10;;
76552;SDS011;65395;53.168;18.156;2022-12-07T06:08:10;7.10;;;4.10;;
76552;SDS011;65395;53.168;18.156;2022-12-07T06:10:37;8.10;;;4.50;;
76552;SDS011;65395;53.168;18.156;2022-12-07T06:13:03;10.20;;;5.10;;
76552;SDS011;65395;53.168;18.156;2022-12-07T06:15:30;10.00;;;5.20;;
76552;SDS011;65395;53.168;18.156;2022-12-07T06:17:57;9.10;;;5.10;;
76552;SDS011;65395;53.168;18.156;2022-12-07T06:20:23;10.80;;;5.10;;
76552;SDS011;65395;53.168;18.156;2022-12-07T06:22:50;10.00;;;4.50;;
76552;SDS011;65395;53.168;18.156;2022-12-07T06:25:17;8.80;;;4.80;;
76552;SDS011;65395;53.168;18.156;2022-12-07T06:27:43;10.00;;;5.50;;
76552;SDS011;65395;53.168;18.156;2022-12-07T06:30:10;10.40;;;5.40;;
76552;SDS011;65395;53.168;18.156;2022-12-07T06:32:37;13.80;;;6.20;;
76552;SDS011;65395;53.168;18.156;2022-12-07T06:35:04;16.80;;;6.60;;
76552;SDS011;65395;53.168;18.156;2022-12-07T06:37:30;13.90;;;6.40;;
76552;SDS011;65395;53.168;18.156;2022-12-07T06:39:57;18.50;;;7.70;;
76552;SDS011;65395;53.168;18.156;2022-12-07T06:42:24;21.50;;;7.40;;
76552;SDS011;65395;53.168;18.156;2022-12-07T06:44:50;18.80;;;8.20;;
76552;SDS011;65395;53.168;18.156;2022-12-07T06:47:17;22.40;;;8.40;;
76552;SDS011;65395;53.168;18.156;2022-12-07T06:49:44;19.60;;;8.60;;
76552;SDS011;65395;53.168;18.156;2022-12-07T06:52:11;23.50;;;9.10;;
76552;SDS011;65395;53.168;18.156;2022-12-07T06:54:37;23.90;;;9.30;;
76552;SDS011;65395;53.168;18.156;2022-12-07T06:57:04;19.60;;;8.20;;
76552;SDS011;65395;53.168;18.156;2022-12-07T06:59:31;19.70;;;8.60;;
76552;SDS011;65395;53.168;18.156;2022-12-07T07:01:58;20.00;;;9.00;;
76552;SDS011;65395;53.168;18.156;2022-12-07T07:04:24;17.40;;;8.80;;
76552;SDS011;65395;53.168;18.156;2022-12-07T07:06:51;18.40;;;8.50;;
76552;SDS011;65395;53.168;18.156;2022-12-07T07:09:18;22.10;;;10.10;;
76552;SDS011;65395;53.168;18.156;2022-12-07T07:11:44;25.60;;;9.40;;
76552;SDS011;65395;53.168;18.156;2022-12-07T07:14:11;23.80;;;8.90;;
76552;SDS011;65395;53.168;18.156;2022-12-07T07:16:38;20.70;;;8.60;;
76552;SDS011;65395;53.168;18.156;2022-12-07T07:19:04;17.30;;;8.70;;
76552;SDS011;65395;53.168;18.156;2022-12-07T07:21:31;22.40;;;9.40;;
76552;SDS011;65395;53.168;18.156;2022-12-07T07:23:58;23.90;;;8.70;;
76552;SDS011;65395;53.168;18.156;2022-12-07T07:26:24;21.90;;;9.40;;
76552;SDS011;65395;53.168;18.156;2022-12-07T07:28:51;21.10;;;10.00;;
76552;SDS011;65395;53.168;18.156;2022-12-07T07:31:18;23.70;;;8.60;;
76552;SDS011;65395;53.168;18.156;2022-12-07T07:33:45;22.60;;;9.80;;
76552;SDS011;65395;53.168;18.156;2022-12-07T07:36:13;20.10;;;8.90;;
76552;SDS011;65395;53.168;18.156;2022-12-07T07:38:39;19.20;;;9.50;;
76552;SDS011;65395;53.168;18.156;2022-12-07T07:41:06;22.70;;;9.30;;
76552;SDS011;65395;53.168;18.156;2022-12-07T07:43:33;24.50;;;9.70;;
76552;SDS011;65395;53.168;18.156;2022-12-07T07:45:59;19.10;;;8.20;;
76552;SDS011;65395;53.168;18.156;2022-12-07T07:48:26;19.70;;;8.40;;
76552;SDS011;65395;53.168;18.156;2022-12-07T07:50:52;21.80;;;9.00;;
76552;SDS011;65395;53.168;18.156;2022-12-07T07:53:19;24.60;;;8.70;;
76552;SDS011;65395;53.168;18.156;2022-12-07T07:55:53;20.60;;;9.00;;
76552;SDS011;65395;53.168;18.156;2022-12-07T07:58:21;20.00;;;8.50;;
76552;SDS011;65395;53.168;18.156;2022-12-07T08:00:48;17.20;;;8.40;;
76552;SDS011;65395;53.168;18.156;2022-12-07T08:03:15;20.10;;;8.80;;
76552;SDS011;65395;53.168;18.156;2022-12-07T08:05:42;21.70;;;9.00;;
76552;SDS011;65395;53.168;18.156;2022-12-07T08:08:09;23.00;;;8.90;;
76552;SDS011;65395;53.168;18.156;2022-12-07T08:10:35;20.80;;;8.30;;
76552;SDS011;65395;53.168;18.156;2022-12-07T08:13:03;17.60;;;7.80;;
76552;SDS011;65395;53.168;18.156;2022-12-07T08:15:37;19.40;;;8.80;;
76552;SDS011;65395;53.168;18.156;2022-12-07T08:18:05;20.20;;;9.40;;
76552;SDS011;65395;53.168;18.156;2022-12-07T08:20:33;23.80;;;10.00;;
76552;SDS011;65395;53.168;18.156;2022-12-07T08:23:00;18.40;;;9.10;;
76552;SDS011;65395;53.168;18.156;2022-12-07T08:25:29;22.40;;;9.20;;
76552;SDS011;65395;53.168;18.156;2022-12-07T08:27:56;21.50;;;9.90;;
76552;SDS011;65395;53.168;18.156;2022-12-07T08:30:23;21.20;;;8.90;;
76552;SDS011;65395;53.168;18.156;2022-12-07T08:32:50;25.00;;;11.20;;
76552;SDS011;65395;53.168;18.156;2022-12-07T08:35:17;24.60;;;9.10;;
76552;SDS011;65395;53.168;18.156;2022-12-07T08:37:44;22.10;;;9.40;;
76552;SDS011;65395;53.168;18.156;2022-12-07T08:40:11;23.00;;;9.40;;
76552;SDS011;65395;53.168;18.156;2022-12-07T08:42:42;18.00;;;8.50;;
76552;SDS011;65395;53.168;18.156;2022-12-07T08:45:15;21.90;;;8.60;;
76552;SDS011;65395;53.168;18.156;2022-12-07T08:47:45;16.80;;;7.60;;
76552;SDS011;65395;53.168;18.156;2022-12-07T08:50:18;15.40;;;7.40;;
76552;SDS011;65395;53.168;18.156;2022-12-07T08:52:48;14.80;;;7.80;;
76552;SDS011;65395;53.168;18.156;2022-12-07T08:55:18;14.30;;;7.80;;
76552;SDS011;65395;53.168;18.156;2022-12-07T08:57:45;14.80;;;8.10;;
76552;SDS011;65395;53.168;18.156;2022-12-07T09:00:12;16.30;;;7.70;;
76552;SDS011;65395;53.168;18.156;2022-12-07T09:02:40;16.80;;;8.30;;
76552;SDS011;65395;53.168;18.156;2022-12-07T09:05:07;17.10;;;9.20;;
76552;SDS011;65395;53.168;18.156;2022-12-07T09:07:34;17.20;;;8.90;;
76552;SDS011;65395;53.168;18.156;2022-12-07T09:10:02;17.70;;;8.80;;
76552;SDS011;65395;53.168;18.156;2022-12-07T09:12:29;18.60;;;8.50;;
76552;SDS011;65395;53.168;18.156;2022-12-07T09:14:56;16.00;;;8.20;;
76552;SDS011;65395;53.168;18.156;2022-12-07T09:17:23;17.10;;;8.60;;
76552;SDS011;65395;53.168;18.156;2022-12-07T09:19:49;15.00;;;8.30;;
76552;SDS011;65395;53.168;18.156;2022-12-07T09:22:16;14.50;;;7.90;;
76552;SDS011;65395;53.168;18.156;2022-12-07T09:24:43;13.60;;;6.90;;
76552;SDS011;65395;53.168;18.156;2022-12-07T09:27:11;13.60;;;7.60;;
76552;SDS011;65395;53.168;18.156;2022-12-07T09:29:38;15.10;;;8.20;;
76552;SDS011;65395;53.168;18.156;2022-12-07T09:32:05;14.70;;;7.00;;
76552;SDS011;65395;53.168;18.156;2022-12-07T09:34:32;14.80;;;7.80;;
76552;SDS011;65395;53.168;18.156;2022-12-07T09:37:00;10.10;;;6.00;;
76552;SDS011;65395;53.168;18.156;2022-12-07T09:39:29;13.20;;;7.70;;
76552;SDS011;65395;53.168;18.156;2022-12-07T09:41:56;11.30;;;6.20;;
76552;SDS011;65395;53.168;18.156;2022-12-07T09:44:25;11.30;;;6.40;;
76552;SDS011;65395;53.168;18.156;2022-12-07T09:46:52;10.60;;;6.00;;
76552;SDS011;65395;53.168;18.156;2022-12-07T09:49:20;11.50;;;6.20;;
76552;SDS011;65395;53.168;18.156;2022-12-07T09:52:52;12.20;;;6.70;;
76552;SDS011;65395;53.168;18.156;2022-12-07T09:54:48;12.90;;;6.40;;
76552;SDS011;65395;53.168;18.156;2022-12-07T09:57:17;10.70;;;5.90;;
76552;SDS011;65395;53.168;18.156;2022-12-07T09:59:55;12.00;;;6.20;;
76552;SDS011;65395;53.168;18.156;2022-12-07T10:02:32;10.70;;;6.40;;
76552;SDS011;65395;53.168;18.156;2022-12-07T10:05:03;10.90;;;6.10;;
76552;SDS011;65395;53.168;18.156;2022-12-07T10:07:33;10.50;;;6.30;;
76552;SDS011;65395;53.168;18.156;2022-12-07T10:10:02;10.40;;;6.10;;
76552;SDS011;65395;53.168;18.156;2022-12-07T10:12:30;10.10;;;6.20;;
76552;SDS011;65395;53.168;18.156;2022-12-07T10:15:11;13.20;;;6.30;;
76552;SDS011;65395;53.168;18.156;2022-12-07T10:17:41;10.80;;;6.00;;
76552;SDS011;65395;53.168;18.156;2022-12-07T10:22:54;11.20;;;6.40;;
76552;SDS011;65395;53.168;18.156;2022-12-07T10:25:29;11.10;;;5.90;;
76552;SDS011;65395;53.168;18.156;2022-12-07T10:28:00;11.30;;;6.40;;
76552;SDS011;65395;53.168;18.156;2022-12-07T10:36:00;12.60;;;7.10;;
76552;SDS011;65395;53.168;18.156;2022-12-07T10:38:45;12.20;;;6.20;;
76552;SDS011;65395;53.168;18.156;2022-12-07T10:41:13;11.20;;;6.00;;
76552;SDS011;65395;53.168;18.156;2022-12-07T10:43:47;9.50;;;5.90;;
76552;SDS011;65395;53.168;18.156;2022-12-07T10:46:23;9.80;;;6.00;;
76552;SDS011;65395;53.168;18.156;2022-12-07T10:49:15;9.40;;;5.90;;
76552;SDS011;65395;53.168;18.156;2022-12-07T10:52:01;9.90;;;5.80;;
76552;SDS011;65395;53.168;18.156;2022-12-07T10:54:44;9.50;;;6.00;;
76552;SDS011;65395;53.168;18.156;2022-12-07T10:57:31;10.90;;;6.30;;
76552;SDS011;65395;53.168;18.156;2022-12-07T11:00:19;10.10;;;5.70;;
76552;SDS011;65395;53.168;18.156;2022-12-07T11:05:45;9.50;;;6.00;;
76552;SDS011;65395;53.168;18.156;2022-12-07T11:14:10;10.90;;;5.20;;
76552;SDS011;65395;53.168;18.156;2022-12-07T11:16:57;8.90;;;5.70;;
76552;SDS011;65395;53.168;18.156;2022-12-07T11:19:34;12.00;;;6.80;;
76552;SDS011;65395;53.168;18.156;2022-12-07T11:22:19;10.10;;;6.20;;
76552;SDS011;65395;53.168;18.156;2022-12-07T11:27:56;8.70;;;5.60;;
76552;SDS011;65395;53.168;18.156;2022-12-07T11:33:43;9.60;;;5.70;;
76552;SDS011;65395;53.168;18.156;2022-12-07T11:36:29;12.70;;;6.00;;
76552;SDS011;65395;53.168;18.156;2022-12-07T11:39:04;8.90;;;5.50;;
76552;SDS011;65395;53.168;18.156;2022-12-07T11:41:55;10.20;;;6.10;;
76552;SDS011;65395;53.168;18.156;2022-12-07T11:44:36;9.70;;;6.00;;
76552;SDS011;65395;53.168;18.156;2022-12-07T11:47:16;10.40;;;6.20;;
76552;SDS011;65395;53.168;18.156;2022-12-07T11:49:58;10.40;;;6.30;;
76552;SDS011;65395;53.168;18.156;2022-12-07T11:52:51;10.50;;;6.70;;
76552;SDS011;65395;53.168;18.156;2022-12-07T12:01:22;9.90;;;6.40;;
76552;SDS011;65395;53.168;18.156;2022-12-07T12:06:50;10.50;;;6.30;;
76552;SDS011;65395;53.168;18.156;2022-12-07T12:09:19;9.60;;;6.00;;
76552;SDS011;65395;53.168;18.156;2022-12-07T12:20:23;9.40;;;5.90;;
76552;SDS011;65395;53.168;18.156;2022-12-07T12:22:58;10.50;;;6.20;;
76552;SDS011;65395;53.168;18.156;2022-12-07T12:25:40;9.20;;;5.50;;
76552;SDS011;65395;53.168;18.156;2022-12-07T12:28:27;10.70;;;6.30;;
76552;SDS011;65395;53.168;18.156;2022-12-07T12:31:05;9.10;;;5.70;;
76552;SDS011;65395;53.168;18.156;2022-12-07T12:33:38;11.20;;;6.30;;
76552;SDS011;65395;53.168;18.156;2022-12-07T12:38:52;11.10;;;6.50;;
76552;SDS011;65395;53.168;18.156;2022-12-07T12:44:39;10.90;;;6.20;;
76552;SDS011;65395;53.168;18.156;2022-12-07T12:52:48;12.80;;;6.70;;
76552;SDS011;65395;53.168;18.156;2022-12-07T12:55:21;10.60;;;6.40;;
76552;SDS011;65395;53.168;18.156;2022-12-07T13:03:52;11.20;;;6.60;;
76552;SDS011;65395;53.168;18.156;2022-12-07T13:09:15;15.40;;;7.20;;
76552;SDS011;65395;53.168;18.156;2022-12-07T13:11:48;11.60;;;6.80;;
76552;SDS011;65395;53.168;18.156;2022-12-07T13:17:03;10.90;;;6.10;;
76552;SDS011;65395;53.168;18.156;2022-12-07T13:22:37;11.20;;;6.60;;
76552;SDS011;65395;53.168;18.156;2022-12-07T13:27:59;11.30;;;6.70;;
76552;SDS011;65395;53.168;18.156;2022-12-07T13:30:34;11.10;;;6.80;;
76552;SDS011;65395;53.168;18.156;2022-12-07T13:33:11;11.00;;;6.60;;
76552;SDS011;65395;53.168;18.156;2022-12-07T13:35:39;12.00;;;6.80;;
76552;SDS011;65395;53.168;18.156;2022-12-07T13:38:15;10.50;;;6.20;;
76552;SDS011;65395;53.168;18.156;2022-12-07T13:41:02;9.80;;;5.70;;
76552;SDS011;65395;53.168;18.156;2022-12-07T13:43:31;11.20;;;6.70;;
76552;SDS011;65395;53.168;18.156;2022-12-07T13:46:20;10.50;;;6.60;;
76552;SDS011;65395;53.168;18.156;2022-12-07T13:48:53;10.40;;;6.00;;
76552;SDS011;65395;53.168;18.156;2022-12-07T13:51:24;9.30;;;5.80;;
76552;SDS011;65395;53.168;18.156;2022-12-07T13:53:54;11.50;;;6.60;;
76552;SDS011;65395;53.168;18.156;2022-12-07T13:56:28;11.50;;;5.70;;
76552;SDS011;65395;53.168;18.156;2022-12-07T13:58:59;9.70;;;6.60;;
76552;SDS011;65395;53.168;18.156;2022-12-07T14:01:26;9.60;;;6.10;;
76552;SDS011;65395;53.168;18.156;2022-12-07T14:03:54;13.20;;;6.70;;
76552;SDS011;65395;53.168;18.156;2022-12-07T14:06:23;10.00;;;5.90;;
76552;SDS011;65395;53.168;18.156;2022-12-07T14:11:34;9.10;;;5.60;;
76552;SDS011;65395;53.168;18.156;2022-12-07T14:14:02;11.30;;;5.90;;
76552;SDS011;65395;53.168;18.156;2022-12-07T14:16:31;10.80;;;5.80;;
76552;SDS011;65395;53.168;18.156;2022-12-07T14:19:03;9.70;;;5.50;;
76552;SDS011;65395;53.168;18.156;2022-12-07T14:21:32;9.40;;;5.80;;
76552;SDS011;65395;53.168;18.156;2022-12-07T14:24:02;10.60;;;5.70;;
76552;SDS011;65395;53.168;18.156;2022-12-07T14:26:35;10.80;;;6.50;;
76552;SDS011;65395;53.168;18.156;2022-12-07T14:31:49;9.80;;;5.90;;
76552;SDS011;65395;53.168;18.156;2022-12-07T14:34:15;9.20;;;5.30;;
76552;SDS011;65395;53.168;18.156;2022-12-07T14:36:42;14.50;;;6.90;;
76552;SDS011;65395;53.168;18.156;2022-12-07T14:39:09;11.50;;;6.00;;
76552;SDS011;65395;53.168;18.156;2022-12-07T14:41:36;9.60;;;5.80;;
76552;SDS011;65395;53.168;18.156;2022-12-07T14:44:13;12.30;;;6.60;;
76552;SDS011;65395;53.168;18.156;2022-12-07T14:46:40;10.30;;;6.00;;
76552;SDS011;65395;53.168;18.156;2022-12-07T14:49:06;11.70;;;6.90;;
76552;SDS011;65395;53.168;18.156;2022-12-07T14:51:33;10.40;;;6.50;;
76552;SDS011;65395;53.168;18.156;2022-12-07T14:54:05;10.40;;;6.10;;
76552;SDS011;65395;53.168;18.156;2022-12-07T14:56:38;11.50;;;6.70;;
76552;SDS011;65395;53.168;18.156;2022-12-07T14:59:04;11.40;;;6.90;;
76552;SDS011;65395;53.168;18.156;2022-12-07T15:01:31;11.20;;;6.40;;
76552;SDS011;65395;53.168;18.156;2022-12-07T15:03:57;10.60;;;6.10;;
76552;SDS011;65395;53.168;18.156;2022-12-07T15:06:24;11.70;;;6.10;;
76552;SDS011;65395;53.168;18.156;2022-12-07T15:08:51;9.80;;;6.30;;
76552;SDS011;65395;53.168;18.156;2022-12-07T15:11:18;11.10;;;6.10;;
76552;SDS011;65395;53.168;18.156;2022-12-07T15:13:45;8.90;;;5.80;;
76552;SDS011;65395;53.168;18.156;2022-12-07T15:16:22;9.80;;;5.80;;
76552;SDS011;65395;53.168;18.156;2022-12-07T15:18:48;9.50;;;6.20;;
76552;SDS011;65395;53.168;18.156;2022-12-07T15:21:15;12.80;;;6.60;;
76552;SDS011;65395;53.168;18.156;2022-12-07T15:23:43;10.50;;;6.50;;
76552;SDS011;65395;53.168;18.156;2022-12-07T15:26:12;9.40;;;6.20;;
76552;SDS011;65395;53.168;18.156;2022-12-07T15:28:40;10.00;;;6.30;;
76552;SDS011;65395;53.168;18.156;2022-12-07T15:31:15;10.30;;;6.20;;
76552;SDS011;65395;53.168;18.156;2022-12-07T15:33:43;11.90;;;6.30;;
76552;SDS011;65395;53.168;18.156;2022-12-07T15:36:19;9.50;;;6.30;;
76552;SDS011;65395;53.168;18.156;2022-12-07T15:38:48;9.70;;;6.00;;
76552;SDS011;65395;53.168;18.156;2022-12-07T15:41:15;10.90;;;6.50;;
76552;SDS011;65395;53.168;18.156;2022-12-07T15:43:42;11.90;;;6.50;;
76552;SDS011;65395;53.168;18.156;2022-12-07T15:46:19;10.30;;;5.90;;
76552;SDS011;65395;53.168;18.156;2022-12-07T15:48:46;10.70;;;6.30;;
76552;SDS011;65395;53.168;18.156;2022-12-07T15:51:12;10.80;;;6.60;;
76552;SDS011;65395;53.168;18.156;2022-12-07T15:53:39;11.50;;;6.70;;
76552;SDS011;65395;53.168;18.156;2022-12-07T15:56:06;12.60;;;6.80;;
76552;SDS011;65395;53.168;18.156;2022-12-07T15:58:34;13.50;;;7.80;;
76552;SDS011;65395;53.168;18.156;2022-12-07T16:01:09;17.50;;;8.70;;
76552;SDS011;65395;53.168;18.156;2022-12-07T16:03:38;17.00;;;8.60;;
76552;SDS011;65395;53.168;18.156;2022-12-07T16:06:05;14.70;;;8.50;;
76552;SDS011;65395;53.168;18.156;2022-12-07T16:08:32;13.00;;;7.80;;
76552;SDS011;65395;53.168;18.156;2022-12-07T16:10:59;15.40;;;9.10;;
76552;SDS011;65395;53.168;18.156;2022-12-07T16:13:26;14.90;;;8.50;;
76552;SDS011;65395;53.168;18.156;2022-12-07T16:15:53;14.30;;;8.20;;
76552;SDS011;65395;53.168;18.156;2022-12-07T16:18:19;15.70;;;8.10;;